sensor_id;sensor_type;location;lat;lon;timestamp;P1;durP1;ratioP1;P2;durP2;ratioP2
19951;SDS011;10137;49.406;19.484;2024-03-02T00:01:31;29.67;;;14.87;;
19951;SDS011;10137;49.406;19.484;2024-03-02T00:03:58;28.07;;;16.33;;
19951;SDS011;10137;49.406;19.484;2024-03-02T00:06:24;34.40;;;16.10;;
19951;SDS011;10137;49.406;19.484;2024-03-02T00:08:51;29.77;;;16.33;;
19951;SDS011;10137;49.406;19.484;2024-03-02T00:11:24;23.80;;;14.60;;
19951;SDS011;10137;49.406;19.484;2024-03-02T00:13:52;22.73;;;13.03;;
19951;SDS011;10137;49.406;19.484;2024-03-02T00:16:19;25.07;;;15.83;;
19951;SDS011;10137;49.406;19.484;2024-03-02T00:18:47;28.30;;;15.97;;
19951;SDS011;10137;49.406;19.484;2024-03-02T00:21:15;22.67;;;14.03;;
19951;SDS011;10137;49.406;19.484;2024-03-02T00:23:45;25.73;;;14.73;;
19951;SDS011;10137;49.406;19.484;2024-03-02T00:26:12;28.47;;;15.70;;
19951;SDS011;10137;49.406;19.484;2024-03-02T00:28:39;28.90;;;14.40;;
19951;SDS011;10137;49.406;19.484;2024-03-02T00:31:09;26.10;;;14.97;;
19951;SDS011;10137;49.406;19.484;2024-03-02T00:33:39;24.07;;;13.43;;
19951;SDS011;10137;49.406;19.484;2024-03-02T00:36:10;27.07;;;14.57;;
19951;SDS011;10137;49.406;19.484;2024-03-02T00:38:42;23.50;;;12.83;;
19951;SDS011;10137;49.406;19.484;2024-03-02T00:41:15;24.80;;;14.63;;
19951;SDS011;10137;49.406;19.484;2024-03-02T00:43:45;26.17;;;14.53;;
19951;SDS011;10137;49.406;19.484;2024-03-02T00:46:16;30.50;;;16.30;;
19951;SDS011;10137;49.406;19.484;2024-03-02T00:48:49;29.30;;;16.17;;
19951;SDS011;10137;49.406;19.484;2024-03-02T00:51:20;24.63;;;15.33;;
19951;SDS011;10137;49.406;19.484;2024-03-02T00:53:49;20.13;;;12.80;;
19951;SDS011;10137;49.406;19.484;2024-03-02T00:56:17;23.63;;;13.37;;
19951;SDS011;10137;49.406;19.484;2024-03-02T00:58:44;26.43;;;13.67;;
19951;SDS011;10137;49.406;19.484;2024-03-02T01:01:11;25.33;;;12.60;;
19951;SDS011;10137;49.406;19.484;2024-03-02T01:03:38;19.83;;;11.97;;
19951;SDS011;10137;49.406;19.484;2024-03-02T01:06:06;18.97;;;12.53;;
19951;SDS011;10137;49.406;19.484;2024-03-02T01:08:35;22.27;;;12.63;;
19951;SDS011;10137;49.406;19.484;2024-03-02T01:11:02;18.83;;;10.00;;
19951;SDS011;10137;49.406;19.484;2024-03-02T01:13:30;19.97;;;12.00;;
19951;SDS011;10137;49.406;19.484;2024-03-02T01:15:57;19.23;;;11.50;;
19951;SDS011;10137;49.406;19.484;2024-03-02T01:18:24;24.53;;;13.53;;
19951;SDS011;10137;49.406;19.484;2024-03-02T01:20:51;21.60;;;12.47;;
19951;SDS011;10137;49.406;19.484;2024-03-02T01:23:20;18.67;;;12.37;;
19951;SDS011;10137;49.406;19.484;2024-03-02T01:25:49;22.40;;;12.57;;
19951;SDS011;10137;49.406;19.484;2024-03-02T01:28:16;20.77;;;12.27;;
19951;SDS011;10137;49.406;19.484;2024-03-02T01:30:43;22.53;;;15.07;;
19951;SDS011;10137;49.406;19.484;2024-03-02T01:33:10;25.27;;;15.40;;
19951;SDS011;10137;49.406;19.484;2024-03-02T01:35:37;27.93;;;14.07;;
19951;SDS011;10137;49.406;19.484;2024-03-02T01:38:04;22.20;;;14.27;;
19951;SDS011;10137;49.406;19.484;2024-03-02T01:40:32;26.97;;;13.77;;
19951;SDS011;10137;49.406;19.484;2024-03-02T01:43:01;20.23;;;12.07;;
19951;SDS011;10137;49.406;19.484;2024-03-02T01:45:28;22.73;;;12.90;;
19951;SDS011;10137;49.406;19.484;2024-03-02T01:47:55;23.37;;;11.97;;
19951;SDS011;10137;49.406;19.484;2024-03-02T01:50:25;28.70;;;14.10;;
19951;SDS011;10137;49.406;19.484;2024-03-02T01:52:54;22.63;;;13.37;;
19951;SDS011;10137;49.406;19.484;2024-03-02T01:55:21;18.47;;;12.10;;
19951;SDS011;10137;49.406;19.484;2024-03-02T01:57:48;26.93;;;13.93;;
19951;SDS011;10137;49.406;19.484;2024-03-02T02:00:17;21.53;;;13.40;;
19951;SDS011;10137;49.406;19.484;2024-03-02T02:02:44;20.10;;;12.43;;
19951;SDS011;10137;49.406;19.484;2024-03-02T02:05:11;22.07;;;13.27;;
19951;SDS011;10137;49.406;19.484;2024-03-02T02:07:39;25.80;;;14.33;;
19951;SDS011;10137;49.406;19.484;2024-03-02T02:10:07;21.30;;;12.90;;
19951;SDS011;10137;49.406;19.484;2024-03-02T02:12:34;23.30;;;13.50;;
19951;SDS011;10137;49.406;19.484;2024-03-02T02:15:01;25.87;;;13.60;;
19951;SDS011;10137;49.406;19.484;2024-03-02T02:17:30;20.60;;;13.73;;
19951;SDS011;10137;49.406;19.484;2024-03-02T02:19:57;24.57;;;14.23;;
19951;SDS011;10137;49.406;19.484;2024-03-02T02:22:25;25.13;;;14.80;;
19951;SDS011;10137;49.406;19.484;2024-03-02T02:24:52;29.23;;;15.30;;
19951;SDS011;10137;49.406;19.484;2024-03-02T02:27:19;24.07;;;14.53;;
19951;SDS011;10137;49.406;19.484;2024-03-02T02:29:46;22.70;;;13.60;;
19951;SDS011;10137;49.406;19.484;2024-03-02T02:32:13;25.50;;;14.57;;
19951;SDS011;10137;49.406;19.484;2024-03-02T02:34:40;21.20;;;13.37;;
19951;SDS011;10137;49.406;19.484;2024-03-02T02:37:07;24.00;;;13.33;;
19951;SDS011;10137;49.406;19.484;2024-03-02T02:39:35;24.13;;;13.20;;
19951;SDS011;10137;49.406;19.484;2024-03-02T02:42:02;26.27;;;14.27;;
19951;SDS011;10137;49.406;19.484;2024-03-02T02:44:29;21.27;;;13.43;;
19951;SDS011;10137;49.406;19.484;2024-03-02T02:46:56;22.27;;;13.37;;
19951;SDS011;10137;49.406;19.484;2024-03-02T02:49:23;23.77;;;13.50;;
19951;SDS011;10137;49.406;19.484;2024-03-02T02:51:50;25.73;;;14.40;;
19951;SDS011;10137;49.406;19.484;2024-03-02T02:54:17;24.10;;;14.47;;
19951;SDS011;10137;49.406;19.484;2024-03-02T02:56:45;25.07;;;14.03;;
19951;SDS011;10137;49.406;19.484;2024-03-02T02:59:12;24.50;;;12.77;;
19951;SDS011;10137;49.406;19.484;2024-03-02T03:01:39;24.13;;;13.20;;
19951;SDS011;10137;49.406;19.484;2024-03-02T03:04:06;21.43;;;13.30;;
19951;SDS011;10137;49.406;19.484;2024-03-02T03:06:32;22.37;;;13.97;;
19951;SDS011;10137;49.406;19.484;2024-03-02T03:08:59;24.33;;;13.33;;
19951;SDS011;10137;49.406;19.484;2024-03-02T03:11:27;23.67;;;12.87;;
19951;SDS011;10137;49.406;19.484;2024-03-02T03:13:55;23.10;;;12.63;;
19951;SDS011;10137;49.406;19.484;2024-03-02T03:16:22;23.97;;;12.47;;
19951;SDS011;10137;49.406;19.484;2024-03-02T03:18:49;22.40;;;13.17;;
19951;SDS011;10137;49.406;19.484;2024-03-02T03:21:18;21.27;;;13.17;;
19951;SDS011;10137;49.406;19.484;2024-03-02T03:23:45;22.23;;;12.10;;
19951;SDS011;10137;49.406;19.484;2024-03-02T03:26:12;21.87;;;12.40;;
19951;SDS011;10137;49.406;19.484;2024-03-02T03:28:39;21.93;;;12.70;;
19951;SDS011;10137;49.406;19.484;2024-03-02T03:31:07;20.80;;;11.77;;
19951;SDS011;10137;49.406;19.484;2024-03-02T03:33:34;22.80;;;11.80;;
19951;SDS011;10137;49.406;19.484;2024-03-02T03:36:00;21.40;;;11.87;;
19951;SDS011;10137;49.406;19.484;2024-03-02T03:38:28;21.90;;;12.33;;
19951;SDS011;10137;49.406;19.484;2024-03-02T03:40:55;24.43;;;13.47;;
19951;SDS011;10137;49.406;19.484;2024-03-02T03:43:22;22.70;;;13.40;;
19951;SDS011;10137;49.406;19.484;2024-03-02T03:45:49;21.83;;;13.03;;
19951;SDS011;10137;49.406;19.484;2024-03-02T03:48:17;25.10;;;13.40;;
19951;SDS011;10137;49.406;19.484;2024-03-02T03:50:44;19.97;;;12.63;;
19951;SDS011;10137;49.406;19.484;2024-03-02T03:53:11;25.60;;;15.10;;
19951;SDS011;10137;49.406;19.484;2024-03-02T03:55:39;24.83;;;13.77;;
19951;SDS011;10137;49.406;19.484;2024-03-02T03:58:06;25.73;;;18.50;;
19951;SDS011;10137;49.406;19.484;2024-03-02T04:00:33;23.93;;;16.73;;
19951;SDS011;10137;49.406;19.484;2024-03-02T04:03:00;24.47;;;14.80;;
19951;SDS011;10137;49.406;19.484;2024-03-02T04:05:28;21.43;;;12.67;;
19951;SDS011;10137;49.406;19.484;2024-03-02T04:07:55;25.97;;;12.57;;
19951;SDS011;10137;49.406;19.484;2024-03-02T04:10:22;20.13;;;12.63;;
19951;SDS011;10137;49.406;19.484;2024-03-02T04:12:49;20.93;;;12.17;;
19951;SDS011;10137;49.406;19.484;2024-03-02T04:15:16;21.97;;;12.53;;
19951;SDS011;10137;49.406;19.484;2024-03-02T04:17:44;20.57;;;12.83;;
19951;SDS011;10137;49.406;19.484;2024-03-02T04:20:11;23.80;;;13.93;;
19951;SDS011;10137;49.406;19.484;2024-03-02T04:22:40;24.43;;;13.13;;
19951;SDS011;10137;49.406;19.484;2024-03-02T04:25:07;21.03;;;13.07;;
19951;SDS011;10137;49.406;19.484;2024-03-02T04:27:34;21.63;;;13.37;;
19951;SDS011;10137;49.406;19.484;2024-03-02T04:30:01;22.10;;;13.30;;
19951;SDS011;10137;49.406;19.484;2024-03-02T04:32:30;26.17;;;13.77;;
19951;SDS011;10137;49.406;19.484;2024-03-02T04:34:57;23.97;;;13.40;;
19951;SDS011;10137;49.406;19.484;2024-03-02T04:37:24;20.40;;;12.37;;
19951;SDS011;10137;49.406;19.484;2024-03-02T04:39:52;22.57;;;12.70;;
19951;SDS011;10137;49.406;19.484;2024-03-02T04:42:19;22.43;;;13.40;;
19951;SDS011;10137;49.406;19.484;2024-03-02T04:44:45;24.80;;;16.23;;
19951;SDS011;10137;49.406;19.484;2024-03-02T04:47:12;24.53;;;15.03;;
19951;SDS011;10137;49.406;19.484;2024-03-02T04:49:39;28.20;;;16.33;;
19951;SDS011;10137;49.406;19.484;2024-03-02T04:52:06;39.17;;;20.13;;
19951;SDS011;10137;49.406;19.484;2024-03-02T04:54:33;35.40;;;19.27;;
19951;SDS011;10137;49.406;19.484;2024-03-02T04:57:22;63.67;;;29.23;;
19951;SDS011;10137;49.406;19.484;2024-03-02T04:59:48;39.30;;;21.60;;
19951;SDS011;10137;49.406;19.484;2024-03-02T05:02:15;27.40;;;18.00;;
19951;SDS011;10137;49.406;19.484;2024-03-02T05:04:42;30.63;;;16.33;;
19951;SDS011;10137;49.406;19.484;2024-03-02T05:07:09;29.20;;;16.93;;
19951;SDS011;10137;49.406;19.484;2024-03-02T05:09:36;42.20;;;22.30;;
19951;SDS011;10137;49.406;19.484;2024-03-02T05:12:03;81.67;;;36.10;;
19951;SDS011;10137;49.406;19.484;2024-03-02T05:14:49;73.07;;;32.60;;
19951;SDS011;10137;49.406;19.484;2024-03-02T05:17:16;74.07;;;40.93;;
19951;SDS011;10137;49.406;19.484;2024-03-02T05:19:43;63.50;;;35.10;;
19951;SDS011;10137;49.406;19.484;2024-03-02T05:22:09;63.10;;;34.53;;
19951;SDS011;10137;49.406;19.484;2024-03-02T05:24:36;50.33;;;26.07;;
19951;SDS011;10137;49.406;19.484;2024-03-02T05:27:03;32.03;;;17.07;;
19951;SDS011;10137;49.406;19.484;2024-03-02T05:29:31;25.47;;;14.00;;
19951;SDS011;10137;49.406;19.484;2024-03-02T05:31:59;25.20;;;14.60;;
19951;SDS011;10137;49.406;19.484;2024-03-02T05:34:26;24.87;;;13.83;;
19951;SDS011;10137;49.406;19.484;2024-03-02T05:36:53;21.73;;;13.63;;
19951;SDS011;10137;49.406;19.484;2024-03-02T05:39:21;25.80;;;14.20;;
19951;SDS011;10137;49.406;19.484;2024-03-02T05:41:47;24.00;;;13.97;;
19951;SDS011;10137;49.406;19.484;2024-03-02T05:44:14;24.53;;;14.13;;
19951;SDS011;10137;49.406;19.484;2024-03-02T05:46:41;25.97;;;16.17;;
19951;SDS011;10137;49.406;19.484;2024-03-02T05:49:10;26.80;;;14.57;;
19951;SDS011;10137;49.406;19.484;2024-03-02T05:51:37;25.97;;;16.03;;
19951;SDS011;10137;49.406;19.484;2024-03-02T05:54:03;30.67;;;17.73;;
19951;SDS011;10137;49.406;19.484;2024-03-02T05:56:30;33.20;;;20.57;;
19951;SDS011;10137;49.406;19.484;2024-03-02T05:58:57;33.87;;;20.37;;
19951;SDS011;10137;49.406;19.484;2024-03-02T06:01:37;33.27;;;20.57;;
19951;SDS011;10137;49.406;19.484;2024-03-02T06:04:04;31.97;;;19.17;;
19951;SDS011;10137;49.406;19.484;2024-03-02T06:06:32;26.60;;;18.40;;
19951;SDS011;10137;49.406;19.484;2024-03-02T06:08:59;29.47;;;19.60;;
19951;SDS011;10137;49.406;19.484;2024-03-02T06:11:27;30.83;;;18.17;;
19951;SDS011;10137;49.406;19.484;2024-03-02T06:13:54;31.20;;;18.77;;
19951;SDS011;10137;49.406;19.484;2024-03-02T06:16:21;30.90;;;18.83;;
19951;SDS011;10137;49.406;19.484;2024-03-02T06:18:48;29.60;;;18.90;;
19951;SDS011;10137;49.406;19.484;2024-03-02T06:21:15;29.27;;;17.77;;
19951;SDS011;10137;49.406;19.484;2024-03-02T06:23:44;24.17;;;15.90;;
19951;SDS011;10137;49.406;19.484;2024-03-02T06:26:11;23.83;;;14.43;;
19951;SDS011;10137;49.406;19.484;2024-03-02T06:28:38;22.13;;;13.40;;
19951;SDS011;10137;49.406;19.484;2024-03-02T06:31:05;24.27;;;17.50;;
19951;SDS011;10137;49.406;19.484;2024-03-02T06:33:32;22.53;;;12.47;;
19951;SDS011;10137;49.406;19.484;2024-03-02T06:35:58;17.93;;;11.87;;
19951;SDS011;10137;49.406;19.484;2024-03-02T06:38:25;18.40;;;11.87;;
19951;SDS011;10137;49.406;19.484;2024-03-02T06:40:53;23.43;;;14.20;;
19951;SDS011;10137;49.406;19.484;2024-03-02T06:43:21;21.53;;;12.63;;
19951;SDS011;10137;49.406;19.484;2024-03-02T06:45:48;31.43;;;17.07;;
19951;SDS011;10137;49.406;19.484;2024-03-02T06:48:15;29.67;;;18.47;;
19951;SDS011;10137;49.406;19.484;2024-03-02T06:50:45;25.10;;;14.80;;
19951;SDS011;10137;49.406;19.484;2024-03-02T06:53:11;22.73;;;13.10;;
19951;SDS011;10137;49.406;19.484;2024-03-02T06:55:38;29.37;;;12.97;;
19951;SDS011;10137;49.406;19.484;2024-03-02T06:58:06;19.13;;;12.87;;
19951;SDS011;10137;49.406;19.484;2024-03-02T07:00:33;21.83;;;12.50;;
19951;SDS011;10137;49.406;19.484;2024-03-02T07:03:00;19.90;;;12.00;;
19951;SDS011;10137;49.406;19.484;2024-03-02T07:05:27;25.50;;;13.97;;
19951;SDS011;10137;49.406;19.484;2024-03-02T07:07:54;29.23;;;13.33;;
19951;SDS011;10137;49.406;19.484;2024-03-02T07:10:21;39.03;;;14.63;;
19951;SDS011;10137;49.406;19.484;2024-03-02T07:12:48;27.97;;;15.17;;
19951;SDS011;10137;49.406;19.484;2024-03-02T07:15:16;34.43;;;16.40;;
19951;SDS011;10137;49.406;19.484;2024-03-02T07:18:09;31.33;;;15.33;;
19951;SDS011;10137;49.406;19.484;2024-03-02T07:20:36;30.83;;;17.17;;
19951;SDS011;10137;49.406;19.484;2024-03-02T07:23:04;31.77;;;16.53;;
19951;SDS011;10137;49.406;19.484;2024-03-02T07:25:31;27.17;;;16.03;;
19951;SDS011;10137;49.406;19.484;2024-03-02T07:27:58;30.23;;;16.77;;
19951;SDS011;10137;49.406;19.484;2024-03-02T07:30:26;34.40;;;18.67;;
19951;SDS011;10137;49.406;19.484;2024-03-02T07:32:53;37.73;;;20.07;;
19951;SDS011;10137;49.406;19.484;2024-03-02T07:35:20;32.67;;;18.67;;
19951;SDS011;10137;49.406;19.484;2024-03-02T07:37:51;31.70;;;17.63;;
19951;SDS011;10137;49.406;19.484;2024-03-02T07:40:18;25.20;;;15.67;;
19951;SDS011;10137;49.406;19.484;2024-03-02T07:42:45;26.37;;;14.50;;
19951;SDS011;10137;49.406;19.484;2024-03-02T07:45:12;26.30;;;15.97;;
19951;SDS011;10137;49.406;19.484;2024-03-02T07:47:40;24.37;;;15.00;;
19951;SDS011;10137;49.406;19.484;2024-03-02T07:50:07;22.80;;;13.60;;
19951;SDS011;10137;49.406;19.484;2024-03-02T07:52:35;28.33;;;14.50;;
19951;SDS011;10137;49.406;19.484;2024-03-02T07:55:02;24.73;;;14.40;;
19951;SDS011;10137;49.406;19.484;2024-03-02T07:57:30;33.03;;;15.03;;
19951;SDS011;10137;49.406;19.484;2024-03-02T07:59:57;27.77;;;14.97;;
19951;SDS011;10137;49.406;19.484;2024-03-02T08:02:25;30.17;;;14.83;;
19951;SDS011;10137;49.406;19.484;2024-03-02T08:04:53;27.13;;;14.60;;
19951;SDS011;10137;49.406;19.484;2024-03-02T08:07:20;25.37;;;15.13;;
19951;SDS011;10137;49.406;19.484;2024-03-02T08:09:47;22.00;;;14.23;;
19951;SDS011;10137;49.406;19.484;2024-03-02T08:12:13;21.07;;;12.10;;
19951;SDS011;10137;49.406;19.484;2024-03-02T08:14:40;25.13;;;14.43;;
19951;SDS011;10137;49.406;19.484;2024-03-02T08:17:07;22.97;;;14.10;;
19951;SDS011;10137;49.406;19.484;2024-03-02T08:19:36;21.23;;;13.80;;
19951;SDS011;10137;49.406;19.484;2024-03-02T08:22:05;20.80;;;12.50;;
19951;SDS011;10137;49.406;19.484;2024-03-02T08:24:32;20.70;;;12.50;;
19951;SDS011;10137;49.406;19.484;2024-03-02T08:26:59;21.00;;;13.37;;
19951;SDS011;10137;49.406;19.484;2024-03-02T08:29:26;20.47;;;13.50;;
19951;SDS011;10137;49.406;19.484;2024-03-02T08:31:53;24.03;;;15.77;;
19951;SDS011;10137;49.406;19.484;2024-03-02T08:34:19;34.33;;;20.10;;
19951;SDS011;10137;49.406;19.484;2024-03-02T08:36:46;26.23;;;16.93;;
19951;SDS011;10137;49.406;19.484;2024-03-02T08:39:15;28.73;;;15.77;;
19951;SDS011;10137;49.406;19.484;2024-03-02T08:41:42;33.00;;;18.93;;
19951;SDS011;10137;49.406;19.484;2024-03-02T08:44:09;34.60;;;18.73;;
19951;SDS011;10137;49.406;19.484;2024-03-02T08:46:36;35.97;;;21.07;;
19951;SDS011;10137;49.406;19.484;2024-03-02T08:49:03;35.13;;;20.13;;
19951;SDS011;10137;49.406;19.484;2024-03-02T08:51:30;35.50;;;21.37;;
19951;SDS011;10137;49.406;19.484;2024-03-02T08:53:57;49.63;;;27.83;;
19951;SDS011;10137;49.406;19.484;2024-03-02T08:56:26;53.97;;;32.87;;
19951;SDS011;10137;49.406;19.484;2024-03-02T08:58:53;45.43;;;26.80;;
19951;SDS011;10137;49.406;19.484;2024-03-02T09:01:20;39.03;;;23.47;;
19951;SDS011;10137;49.406;19.484;2024-03-02T09:03:47;30.50;;;19.20;;
19951;SDS011;10137;49.406;19.484;2024-03-02T09:06:14;31.70;;;18.77;;
19951;SDS011;10137;49.406;19.484;2024-03-02T09:08:42;26.87;;;17.20;;
19951;SDS011;10137;49.406;19.484;2024-03-02T09:11:09;21.97;;;14.30;;
19951;SDS011;10137;49.406;19.484;2024-03-02T09:13:38;22.33;;;14.47;;
19951;SDS011;10137;49.406;19.484;2024-03-02T09:16:05;30.27;;;16.57;;
19951;SDS011;10137;49.406;19.484;2024-03-02T09:18:35;37.07;;;23.90;;
19951;SDS011;10137;49.406;19.484;2024-03-02T09:21:03;24.77;;;15.30;;
19951;SDS011;10137;49.406;19.484;2024-03-02T09:23:30;27.37;;;14.67;;
19951;SDS011;10137;49.406;19.484;2024-03-02T09:25:57;22.73;;;13.67;;
19951;SDS011;10137;49.406;19.484;2024-03-02T09:28:24;29.87;;;16.80;;
19951;SDS011;10137;49.406;19.484;2024-03-02T09:30:52;29.57;;;18.13;;
19951;SDS011;10137;49.406;19.484;2024-03-02T09:33:19;36.30;;;21.07;;
19951;SDS011;10137;49.406;19.484;2024-03-02T09:35:46;34.13;;;21.07;;
19951;SDS011;10137;49.406;19.484;2024-03-02T09:38:13;29.67;;;17.83;;
19951;SDS011;10137;49.406;19.484;2024-03-02T09:40:41;33.80;;;19.77;;
19951;SDS011;10137;49.406;19.484;2024-03-02T09:43:08;41.43;;;19.80;;
19951;SDS011;10137;49.406;19.484;2024-03-02T09:45:35;30.27;;;18.70;;
19951;SDS011;10137;49.406;19.484;2024-03-02T09:48:04;28.10;;;18.17;;
19951;SDS011;10137;49.406;19.484;2024-03-02T09:50:32;35.43;;;17.17;;
19951;SDS011;10137;49.406;19.484;2024-03-02T09:52:59;33.07;;;18.33;;
19951;SDS011;10137;49.406;19.484;2024-03-02T09:55:26;29.37;;;17.77;;
19951;SDS011;10137;49.406;19.484;2024-03-02T09:57:53;29.30;;;17.23;;
19951;SDS011;10137;49.406;19.484;2024-03-02T10:00:21;29.50;;;17.93;;
19951;SDS011;10137;49.406;19.484;2024-03-02T10:02:48;40.17;;;19.20;;
19951;SDS011;10137;49.406;19.484;2024-03-02T10:05:24;29.83;;;19.67;;
19951;SDS011;10137;49.406;19.484;2024-03-02T10:08:02;35.73;;;20.83;;
19951;SDS011;10137;49.406;19.484;2024-03-02T10:10:36;31.23;;;19.23;;
19951;SDS011;10137;49.406;19.484;2024-03-02T10:13:05;35.97;;;19.30;;
19951;SDS011;10137;49.406;19.484;2024-03-02T10:15:33;32.50;;;18.90;;
19951;SDS011;10137;49.406;19.484;2024-03-02T10:18:01;28.87;;;17.23;;
19951;SDS011;10137;49.406;19.484;2024-03-02T10:20:29;33.90;;;20.43;;
19951;SDS011;10137;49.406;19.484;2024-03-02T10:22:59;53.10;;;24.83;;
19951;SDS011;10137;49.406;19.484;2024-03-02T10:25:36;110.13;;;41.57;;
19951;SDS011;10137;49.406;19.484;2024-03-02T10:28:03;57.93;;;28.90;;
19951;SDS011;10137;49.406;19.484;2024-03-02T10:30:31;40.87;;;23.40;;
19951;SDS011;10137;49.406;19.484;2024-03-02T10:32:58;63.50;;;33.17;;
19951;SDS011;10137;49.406;19.484;2024-03-02T10:35:26;66.90;;;32.30;;
19951;SDS011;10137;49.406;19.484;2024-03-02T10:37:55;70.70;;;31.20;;
19951;SDS011;10137;49.406;19.484;2024-03-02T10:40:22;47.57;;;23.60;;
19951;SDS011;10137;49.406;19.484;2024-03-02T10:42:49;40.67;;;21.57;;
19951;SDS011;10137;49.406;19.484;2024-03-02T10:45:16;29.57;;;18.27;;
19951;SDS011;10137;49.406;19.484;2024-03-02T10:47:44;32.83;;;18.80;;
19951;SDS011;10137;49.406;19.484;2024-03-02T10:50:12;26.30;;;16.77;;
19951;SDS011;10137;49.406;19.484;2024-03-02T10:52:39;27.73;;;17.37;;
19951;SDS011;10137;49.406;19.484;2024-03-02T10:55:09;31.87;;;19.17;;
19951;SDS011;10137;49.406;19.484;2024-03-02T10:57:40;36.43;;;21.60;;
19951;SDS011;10137;49.406;19.484;2024-03-02T11:00:11;40.60;;;21.27;;
19951;SDS011;10137;49.406;19.484;2024-03-02T11:02:42;39.23;;;20.33;;
19951;SDS011;10137;49.406;19.484;2024-03-02T11:05:13;31.27;;;17.80;;
19951;SDS011;10137;49.406;19.484;2024-03-02T11:07:45;36.63;;;21.90;;
19951;SDS011;10137;49.406;19.484;2024-03-02T11:10:14;40.33;;;24.30;;
19951;SDS011;10137;49.406;19.484;2024-03-02T11:12:43;36.20;;;19.63;;
19951;SDS011;10137;49.406;19.484;2024-03-02T11:15:19;27.57;;;16.57;;
19951;SDS011;10137;49.406;19.484;2024-03-02T11:17:47;27.50;;;17.20;;
19951;SDS011;10137;49.406;19.484;2024-03-02T11:20:14;27.93;;;16.57;;
19951;SDS011;10137;49.406;19.484;2024-03-02T11:22:44;33.23;;;18.00;;
19951;SDS011;10137;49.406;19.484;2024-03-02T11:25:24;26.80;;;16.77;;
19951;SDS011;10137;49.406;19.484;2024-03-02T11:28:01;28.47;;;17.63;;
19951;SDS011;10137;49.406;19.484;2024-03-02T11:33:24;22.90;;;14.10;;
19951;SDS011;10137;49.406;19.484;2024-03-02T11:35:56;28.10;;;16.57;;
19951;SDS011;10137;49.406;19.484;2024-03-02T11:38:27;29.10;;;17.20;;
19951;SDS011;10137;49.406;19.484;2024-03-02T11:41:00;28.23;;;16.30;;
19951;SDS011;10137;49.406;19.484;2024-03-02T11:43:28;24.23;;;13.50;;
19951;SDS011;10137;49.406;19.484;2024-03-02T11:45:58;19.50;;;12.20;;
19951;SDS011;10137;49.406;19.484;2024-03-02T11:48:29;20.67;;;12.43;;
19951;SDS011;10137;49.406;19.484;2024-03-02T11:50:57;20.67;;;12.20;;
19951;SDS011;10137;49.406;19.484;2024-03-02T11:53:26;28.13;;;14.10;;
19951;SDS011;10137;49.406;19.484;2024-03-02T11:55:55;100.97;;;46.60;;
19951;SDS011;10137;49.406;19.484;2024-03-02T11:58:23;38.27;;;20.60;;
19951;SDS011;10137;49.406;19.484;2024-03-02T12:00:51;23.97;;;14.67;;
19951;SDS011;10137;49.406;19.484;2024-03-02T12:03:20;27.57;;;14.00;;
19951;SDS011;10137;49.406;19.484;2024-03-02T12:05:48;24.37;;;14.43;;
19951;SDS011;10137;49.406;19.484;2024-03-02T12:08:16;22.33;;;13.97;;
19951;SDS011;10137;49.406;19.484;2024-03-02T12:10:43;21.63;;;13.23;;
19951;SDS011;10137;49.406;19.484;2024-03-02T12:13:21;20.80;;;12.33;;
19951;SDS011;10137;49.406;19.484;2024-03-02T12:15:52;21.20;;;11.97;;
19951;SDS011;10137;49.406;19.484;2024-03-02T12:18:20;26.47;;;12.90;;
19951;SDS011;10137;49.406;19.484;2024-03-02T12:20:48;20.00;;;13.03;;
19951;SDS011;10137;49.406;19.484;2024-03-02T12:23:17;24.33;;;14.17;;
19951;SDS011;10137;49.406;19.484;2024-03-02T12:25:45;21.20;;;13.07;;
19951;SDS011;10137;49.406;19.484;2024-03-02T12:28:12;23.13;;;14.03;;
19951;SDS011;10137;49.406;19.484;2024-03-02T12:30:40;24.83;;;13.00;;
19951;SDS011;10137;49.406;19.484;2024-03-02T12:33:07;23.50;;;13.07;;
19951;SDS011;10137;49.406;19.484;2024-03-02T12:35:35;23.83;;;12.67;;
19951;SDS011;10137;49.406;19.484;2024-03-02T12:38:02;23.83;;;13.10;;
19951;SDS011;10137;49.406;19.484;2024-03-02T12:40:30;25.63;;;12.43;;
19951;SDS011;10137;49.406;19.484;2024-03-02T12:42:57;17.33;;;11.27;;
19951;SDS011;10137;49.406;19.484;2024-03-02T12:45:24;20.40;;;11.30;;
19951;SDS011;10137;49.406;19.484;2024-03-02T12:47:52;21.80;;;11.73;;
19951;SDS011;10137;49.406;19.484;2024-03-02T12:50:19;20.83;;;12.93;;
19951;SDS011;10137;49.406;19.484;2024-03-02T12:52:50;19.50;;;12.30;;
19951;SDS011;10137;49.406;19.484;2024-03-02T12:55:19;24.77;;;14.03;;
19951;SDS011;10137;49.406;19.484;2024-03-02T12:57:47;24.20;;;14.67;;
19951;SDS011;10137;49.406;19.484;2024-03-02T13:00:17;27.87;;;16.20;;
19951;SDS011;10137;49.406;19.484;2024-03-02T13:02:45;23.77;;;15.07;;
19951;SDS011;10137;49.406;19.484;2024-03-02T13:05:14;30.07;;;17.67;;
19951;SDS011;10137;49.406;19.484;2024-03-02T13:07:41;33.73;;;18.13;;
19951;SDS011;10137;49.406;19.484;2024-03-02T13:10:08;36.73;;;20.73;;
19951;SDS011;10137;49.406;19.484;2024-03-02T13:12:35;32.37;;;21.13;;
19951;SDS011;10137;49.406;19.484;2024-03-02T13:15:03;34.83;;;20.90;;
19951;SDS011;10137;49.406;19.484;2024-03-02T13:17:30;34.87;;;20.73;;
19951;SDS011;10137;49.406;19.484;2024-03-02T13:19:59;32.93;;;19.63;;
19951;SDS011;10137;49.406;19.484;2024-03-02T13:22:27;30.80;;;19.37;;
19951;SDS011;10137;49.406;19.484;2024-03-02T13:24:54;32.70;;;19.47;;
19951;SDS011;10137;49.406;19.484;2024-03-02T13:27:21;34.80;;;18.50;;
19951;SDS011;10137;49.406;19.484;2024-03-02T13:29:48;31.80;;;18.17;;
19951;SDS011;10137;49.406;19.484;2024-03-02T13:32:15;35.23;;;20.03;;
19951;SDS011;10137;49.406;19.484;2024-03-02T13:34:45;30.17;;;17.13;;
19951;SDS011;10137;49.406;19.484;2024-03-02T13:37:12;28.83;;;15.30;;
19951;SDS011;10137;49.406;19.484;2024-03-02T13:39:40;28.20;;;15.87;;
19951;SDS011;10137;49.406;19.484;2024-03-02T13:42:07;28.37;;;17.23;;
19951;SDS011;10137;49.406;19.484;2024-03-02T13:44:35;32.63;;;16.37;;
19951;SDS011;10137;49.406;19.484;2024-03-02T13:47:02;32.73;;;17.90;;
19951;SDS011;10137;49.406;19.484;2024-03-02T13:49:29;32.17;;;17.57;;
19951;SDS011;10137;49.406;19.484;2024-03-02T13:52:01;28.17;;;17.37;;
19951;SDS011;10137;49.406;19.484;2024-03-02T13:54:36;29.23;;;18.20;;
19951;SDS011;10137;49.406;19.484;2024-03-02T13:57:05;28.50;;;17.10;;
19951;SDS011;10137;49.406;19.484;2024-03-02T13:59:33;27.60;;;16.47;;
19951;SDS011;10137;49.406;19.484;2024-03-02T14:02:01;50.80;;;31.10;;
19951;SDS011;10137;49.406;19.484;2024-03-02T14:04:29;42.13;;;32.17;;
19951;SDS011;10137;49.406;19.484;2024-03-02T14:06:56;27.63;;;17.50;;
19951;SDS011;10137;49.406;19.484;2024-03-02T14:09:23;26.40;;;14.70;;
19951;SDS011;10137;49.406;19.484;2024-03-02T14:11:50;22.47;;;12.67;;
19951;SDS011;10137;49.406;19.484;2024-03-02T14:14:18;30.40;;;20.93;;
19951;SDS011;10137;49.406;19.484;2024-03-02T14:16:45;38.37;;;21.97;;